Alderton, Washington
Current Conditions -  °F | °C
As of 7:58 PM on Thursday 18 Dec 2014 (Local Time) from KTCM Reporting Station
Moderate Rain Moderate Rain  
Wind Chill: 44°   Ceiling: 6000
Heat Index: 49°   Visibility: 9mi
Dew Point: 48°   Wind: 13mph
Humidity: 97%   Direction: 150°SSE
Pressure: 29.72"   Gusts: NA
Location:  47.1905°N, 122.328°W
Report Text: KTCM 190358Z AUTO 15011KT 9SM RA FEW040 OVC060 10/09 A2972 RMK AO2 SLP069 P0009 T00950090
Loading
Personal Weather Stations






























Interactive Weather Map New forecast layout! Learn more

10-Day Weather Forecast

Advertisements
Track Severe Weather on mobile